Terminal Aerodrome Forecast
Issued by NWS

Home | Current Version | Previous Version | Text Only | Print | Product List | Glossary On
Versions: 1 2 3 4 5 6 7 8 9 10 11 12 13 14 15 16 17 18 19 20 21 22
425
FTUS42 KGSP 031126
TAFGMU
TAF
KGMU 031126Z 0312/0412 21005KT P6SM -SHRA BKN006
     FM031400 24012KT P6SM SCT045 BKN200
      TEMPO 0318/0321 4SM -TSRA BKN045CB
     FM040000 28008KT P6SM SCT250
     FM040600 33003KT P6SM BKN100=

USA.gov is the U.S. government's official web portal to all federal, state and local government web resources and services.